createdAt,value
2022-07-25T00:00:44.576Z,77.25
2022-07-25T00:01:46.814Z,77.40
2022-07-25T00:02:50.543Z,77.42
2022-07-25T00:03:52.660Z,77.47
2022-07-25T00:04:55.870Z,77.57
2022-07-25T00:05:59.579Z,77.52
2022-07-25T00:07:02.743Z,77.75
2022-07-25T00:08:05.547Z,77.83
2022-07-25T00:09:09.461Z,77.65
2022-07-25T00:10:11.713Z,77.95
2022-07-25T00:11:15.093Z,78.01
2022-07-25T00:12:20.602Z,78.09
2022-07-25T00:13:23.640Z,77.96
2022-07-25T00:14:26.144Z,77.90
2022-07-25T00:15:31.293Z,77.96
2022-07-25T00:16:33.291Z,78.08
2022-07-25T00:17:36.662Z,78.16
2022-07-25T00:18:38.637Z,78.11
2022-07-25T00:19:42.112Z,78.09
2022-07-25T00:20:44.129Z,78.21
2022-07-25T00:21:48.566Z,78.10
2022-07-25T00:22:50.601Z,78.20
2022-07-25T00:23:55.987Z,78.09
2022-07-25T00:24:57.992Z,78.21
2022-07-25T00:26:00.956Z,78.09
2022-07-25T00:27:03.097Z,78.19
2022-07-25T00:28:06.157Z,78.68
2022-07-25T00:29:08.319Z,78.59
2022-07-25T00:30:12.006Z,78.81
2022-07-25T00:31:14.115Z,78.94
2022-07-25T00:32:17.287Z,79.07
2022-07-25T00:33:19.334Z,79.01
2022-07-25T00:34:22.376Z,79.08
2022-07-25T00:35:24.433Z,78.78
2022-07-25T00:36:27.523Z,79.00
2022-07-25T00:37:30.975Z,78.80
2022-07-25T00:38:34.020Z,78.90
2022-07-25T00:39:36.610Z,78.86
2022-07-25T00:40:40.104Z,78.95
2022-07-25T00:41:42.146Z,78.86
2022-07-25T00:42:45.250Z,78.88
2022-07-25T00:43:47.314Z,78.76
2022-07-25T00:44:50.393Z,78.87
2022-07-25T00:45:52.428Z,78.97
2022-07-25T00:46:56.968Z,78.75
2022-07-25T00:47:59.984Z,78.68
2022-07-25T00:49:02.100Z,78.51
2022-07-25T00:50:05.954Z,78.24
2022-07-25T00:51:10.524Z,77.90
2022-07-25T00:52:13.710Z,77.83
2022-07-25T00:53:17.335Z,77.74
2022-07-25T00:54:21.167Z,77.25
2022-07-25T00:55:26.348Z,77.02
2022-07-25T00:56:29.862Z,77.00
2022-07-25T00:57:31.923Z,76.70
2022-07-25T00:58:35.070Z,76.49
2022-07-25T00:59:37.171Z,76.20
2022-07-25T01:00:40.564Z,75.95
2022-07-25T01:01:42.836Z,75.82
2022-07-25T01:02:46.060Z,75.24
2022-07-25T01:03:48.135Z,75.28
2022-07-25T01:04:51.368Z,75.24
2022-07-25T01:05:54.040Z,75.20
2022-07-25T01:06:57.134Z,74.76
2022-07-25T01:08:00.209Z,74.84
2022-07-25T01:09:04.293Z,74.64
2022-07-25T01:10:08.674Z,74.53
2022-07-25T01:11:10.976Z,74.47
2022-07-25T01:12:14.068Z,74.05
2022-07-25T01:13:18.113Z,74.04
2022-07-25T01:14:22.980Z,73.83
2022-07-25T01:15:26.792Z,73.77
2022-07-25T01:16:28.906Z,73.72
2022-07-25T01:17:32.004Z,73.44
2022-07-25T01:18:34.649Z,73.33
2022-07-25T01:19:37.764Z,73.14
2022-07-25T01:20:41.173Z,72.96
2022-07-25T01:21:44.176Z,72.80
2022-07-25T01:22:46.645Z,72.59
2022-07-25T01:23:49.674Z,72.65
2022-07-25T01:24:51.681Z,72.42
2022-07-25T01:25:54.945Z,72.31
2022-07-25T01:26:57.041Z,72.22
2022-07-25T01:28:00.051Z,72.08
2022-07-25T01:29:02.191Z,71.98
2022-07-25T01:30:07.062Z,71.79
2022-07-25T01:31:09.199Z,71.54
2022-07-25T01:32:13.460Z,71.41
2022-07-25T01:33:16.427Z,71.12
2022-07-25T01:34:19.414Z,70.95
2022-07-25T01:35:21.508Z,71.05
2022-07-25T01:36:26.745Z,70.53
2022-07-25T01:37:28.836Z,70.41
2022-07-25T01:38:31.808Z,70.10
2022-07-25T01:39:33.878Z,69.97
2022-07-25T01:40:37.196Z,69.63
2022-07-25T01:41:39.275Z,69.50
2022-07-25T01:42:42.547Z,69.37
2022-07-25T01:43:44.540Z,69.18
2022-07-25T01:44:47.555Z,69.04
2022-07-25T01:45:50.277Z,68.64
2022-07-25T01:46:53.605Z,68.45
2022-07-25T01:47:55.683Z,68.19
2022-07-25T01:48:58.829Z,68.13
2022-07-25T01:50:00.938Z,67.80
2022-07-25T01:51:03.964Z,67.89
2022-07-25T01:52:07.629Z,67.73
2022-07-25T01:53:10.579Z,67.80
2022-07-25T01:54:12.688Z,67.63
2022-07-25T01:55:15.830Z,67.45
2022-07-25T01:56:17.967Z,67.47
2022-07-25T01:57:30.721Z,67.51
2022-07-25T01:58:34.274Z,67.56
2022-07-25T01:59:38.593Z,67.55
2022-07-25T02:00:42.594Z,67.71
2022-07-25T02:01:45.365Z,67.34
2022-07-25T02:02:48.703Z,67.29
2022-07-25T02:03:50.855Z,67.26
2022-07-25T02:04:54.271Z,67.24
2022-07-25T02:05:57.093Z,67.18
2022-07-25T02:07:00.187Z,67.28
2022-07-25T02:08:03.882Z,66.91
2022-07-25T02:09:06.866Z,66.94
2022-07-25T02:10:09.577Z,66.74
2022-07-25T02:11:12.634Z,66.70
2022-07-25T02:12:14.700Z,66.66
2022-07-25T02:13:17.679Z,66.45
2022-07-25T02:14:19.734Z,66.40
2022-07-25T02:15:22.749Z,66.38
2022-07-25T02:16:28.732Z,65.83
2022-07-25T02:17:32.375Z,65.99
2022-07-25T02:18:34.519Z,65.83
2022-07-25T02:19:37.697Z,65.57
2022-07-25T02:20:39.749Z,65.69
2022-07-25T02:21:44.014Z,65.35
2022-07-25T02:22:46.049Z,65.48
2022-07-25T02:23:50.471Z,65.10
2022-07-25T02:24:52.475Z,65.11
2022-07-25T02:25:55.502Z,64.92
2022-07-25T02:26:57.838Z,64.88
2022-07-25T02:28:01.635Z,64.65
2022-07-25T02:29:03.739Z,64.53
2022-07-25T02:30:08.099Z,64.33
2022-07-25T02:31:10.539Z,64.41
2022-07-25T02:32:13.627Z,64.15
2022-07-25T02:33:15.625Z,64.36
2022-07-25T02:34:18.716Z,64.09
2022-07-25T02:35:21.078Z,64.01
2022-07-25T02:36:24.073Z,64.05
2022-07-25T02:37:26.164Z,63.92
2022-07-25T02:38:29.142Z,63.72
2022-07-25T02:39:32.589Z,63.76
2022-07-25T02:40:35.604Z,63.58
2022-07-25T02:41:37.713Z,63.55
2022-07-25T02:42:40.923Z,63.48
2022-07-25T02:43:43.059Z,63.40
2022-07-25T02:44:46.151Z,63.36
2022-07-25T02:45:49.229Z,63.17
2022-07-25T02:46:52.350Z,63.16
2022-07-25T02:47:54.416Z,63.27
2022-07-25T02:48:57.678Z,63.19
2022-07-25T02:49:59.810Z,63.33
2022-07-25T02:51:02.913Z,63.50
2022-07-25T02:52:05.292Z,63.34
2022-07-25T02:53:08.296Z,63.24
2022-07-25T02:54:10.775Z,63.16
2022-07-25T02:55:15.479Z,63.04
2022-07-25T02:56:17.925Z,62.94
2022-07-25T02:57:24.170Z,62.97
2022-07-25T02:58:26.240Z,63.21
2022-07-25T02:59:32.265Z,62.92
2022-07-25T03:00:34.842Z,63.03
2022-07-25T03:01:38.046Z,63.05
2022-07-25T03:02:40.133Z,63.07
2022-07-25T03:03:43.223Z,63.03
2022-07-25T03:04:45.303Z,63.20
2022-07-25T03:05:48.372Z,63.17
2022-07-25T03:06:50.429Z,63.22
2022-07-25T03:07:53.452Z,63.07
2022-07-25T03:08:55.459Z,63.12
2022-07-25T03:09:58.547Z,63.03
2022-07-25T03:11:01.939Z,63.00
2022-07-25T03:12:05.541Z,62.74
2022-07-25T03:13:07.537Z,62.77
2022-07-25T03:14:10.748Z,62.61
2022-07-25T03:15:13.844Z,62.65
2022-07-25T03:16:16.957Z,62.71
2022-07-25T03:17:19.042Z,62.81
2022-07-25T03:18:22.043Z,62.73
2022-07-25T03:19:24.088Z,62.80
2022-07-25T03:20:27.321Z,62.57
2022-07-25T03:21:29.364Z,62.59
2022-07-25T03:22:32.550Z,62.62
2022-07-25T03:23:34.604Z,62.50
2022-07-25T03:24:37.700Z,62.34
2022-07-25T03:25:39.781Z,62.31
2022-07-25T03:26:44.174Z,62.27
2022-07-25T03:27:46.257Z,62.26
2022-07-25T03:28:49.234Z,62.38
2022-07-25T03:29:51.279Z,62.34
2022-07-25T03:30:54.314Z,62.09
2022-07-25T03:31:56.449Z,62.43
2022-07-25T03:32:59.643Z,62.25
2022-07-25T03:34:01.639Z,62.27
2022-07-25T03:35:05.167Z,62.34
2022-07-25T03:36:07.922Z,62.36
2022-07-25T03:37:10.971Z,62.38
2022-07-25T03:38:13.012Z,62.39
2022-07-25T03:39:16.103Z,62.31
2022-07-25T03:40:18.224Z,62.36
2022-07-25T03:41:21.241Z,62.52
2022-07-25T03:42:26.734Z,62.49
2022-07-25T03:43:31.691Z,62.38
2022-07-25T03:44:33.720Z,62.32
2022-07-25T03:45:36.960Z,62.36
2022-07-25T03:46:39.033Z,62.20
2022-07-25T03:47:42.075Z,62.18
2022-07-25T03:48:44.113Z,62.10
2022-07-25T03:49:47.159Z,62.12
2022-07-25T03:50:49.248Z,61.96
2022-07-25T03:51:52.249Z,61.84
2022-07-25T03:52:54.308Z,61.77
2022-07-25T03:54:03.271Z,61.76
2022-07-25T03:55:07.679Z,61.81
2022-07-25T03:56:09.713Z,61.64
2022-07-25T03:57:12.823Z,61.65
2022-07-25T03:58:16.219Z,61.66
2022-07-25T03:59:21.485Z,61.77
2022-07-25T04:00:23.516Z,61.63
2022-07-25T04:01:26.932Z,61.58
2022-07-25T04:02:29.204Z,61.52
2022-07-25T04:03:33.055Z,61.51
2022-07-25T04:04:36.111Z,61.27
2022-07-25T04:05:38.169Z,61.51
2022-07-25T04:06:42.141Z,61.37
2022-07-25T04:07:44.188Z,61.18
2022-07-25T04:08:47.487Z,61.61
2022-07-25T04:09:50.656Z,61.51
2022-07-25T04:10:52.699Z,61.27
2022-07-25T04:11:55.814Z,61.37
2022-07-25T04:12:57.852Z,61.28
2022-07-25T04:14:02.915Z,61.16
2022-07-25T04:15:07.043Z,61.12
2022-07-25T04:16:13.006Z,60.88
2022-07-25T04:17:19.358Z,60.95
2022-07-25T04:18:28.625Z,61.08
2022-07-25T04:19:31.967Z,60.83
2022-07-25T04:20:37.449Z,60.98
2022-07-25T04:21:40.881Z,60.94
2022-07-25T04:22:46.715Z,60.90
2022-07-25T04:23:50.935Z,60.92
2022-07-25T04:24:53.078Z,60.92
2022-07-25T04:25:56.120Z,60.82
2022-07-25T04:26:58.189Z,60.79
2022-07-25T04:28:01.285Z,60.80
2022-07-25T04:29:05.765Z,60.70
2022-07-25T04:30:09.214Z,60.71
2022-07-25T04:31:12.310Z,60.52
2022-07-25T04:32:14.828Z,60.57
2022-07-25T04:33:18.813Z,60.48
2022-07-25T04:34:21.093Z,60.44
2022-07-25T04:35:24.180Z,60.34
2022-07-25T04:36:27.686Z,60.46
2022-07-25T04:37:29.781Z,60.22
2022-07-25T04:38:32.971Z,60.24
2022-07-25T04:39:34.978Z,60.33
2022-07-25T04:40:38.235Z,60.30
2022-07-25T04:41:40.289Z,60.46
2022-07-25T04:42:43.450Z,60.41
2022-07-25T04:43:48.753Z,60.37
2022-07-25T04:44:53.424Z,60.27
2022-07-25T04:45:55.570Z,60.22
2022-07-25T04:46:58.652Z,60.29
2022-07-25T04:48:01.465Z,60.33
2022-07-25T04:49:04.786Z,60.21
2022-07-25T04:50:08.256Z,60.21
2022-07-25T04:51:11.379Z,60.15
2022-07-25T04:52:13.483Z,59.95
2022-07-25T04:53:17.018Z,59.94
2022-07-25T04:54:19.073Z,59.60
2022-07-25T04:55:22.400Z,59.53
2022-07-25T04:56:25.538Z,59.43
2022-07-25T04:57:27.705Z,59.55
2022-07-25T04:58:32.729Z,59.56
2022-07-25T04:59:35.738Z,59.62
2022-07-25T05:00:39.440Z,59.59
2022-07-25T05:01:42.590Z,59.59
2022-07-25T05:02:44.664Z,59.48
2022-07-25T05:03:49.757Z,59.41
2022-07-25T05:04:53.109Z,59.12
2022-07-25T05:05:56.184Z,59.15
2022-07-25T05:06:59.353Z,58.94
2022-07-25T05:08:02.661Z,59.09
2022-07-25T05:09:04.744Z,59.02
2022-07-25T05:10:08.501Z,59.08
2022-07-25T05:11:10.659Z,59.01
2022-07-25T05:12:13.735Z,59.14
2022-07-25T05:13:16.305Z,58.96
2022-07-25T05:14:19.447Z,59.05
2022-07-25T05:15:23.616Z,58.79
2022-07-25T05:16:28.051Z,58.71
2022-07-25T05:17:30.296Z,58.64
2022-07-25T05:18:34.912Z,58.77
2022-07-25T05:19:37.234Z,58.81
2022-07-25T05:20:40.633Z,59.02
2022-07-25T05:21:42.676Z,59.23
2022-07-25T05:22:45.741Z,59.10
2022-07-25T05:23:47.847Z,59.19
2022-07-25T05:24:50.926Z,58.93
2022-07-25T05:25:53.046Z,58.56
2022-07-25T05:26:56.177Z,58.59
2022-07-25T05:27:58.709Z,58.64
2022-07-25T05:29:01.820Z,58.67
2022-07-25T05:30:05.950Z,58.84
2022-07-25T05:31:09.326Z,58.43
2022-07-25T05:32:12.795Z,58.76
2022-07-25T05:33:15.884Z,58.50
2022-07-25T05:34:18.019Z,58.23
2022-07-25T05:35:21.141Z,57.93
2022-07-25T05:36:24.181Z,57.98
2022-07-25T05:37:26.742Z,58.01
2022-07-25T05:38:30.049Z,58.15
2022-07-25T05:39:32.101Z,58.04
2022-07-25T05:40:35.140Z,57.66
2022-07-25T05:41:37.287Z,57.75
2022-07-25T05:42:40.418Z,57.52
2022-07-25T05:43:46.155Z,57.61
2022-07-25T05:44:49.426Z,57.29
2022-07-25T05:45:51.558Z,57.29
2022-07-25T05:46:54.713Z,57.21
2022-07-25T05:47:59.344Z,57.10
2022-07-25T05:49:01.822Z,57.03
2022-07-25T05:50:05.399Z,57.01
2022-07-25T05:51:07.483Z,57.04
2022-07-25T05:52:13.104Z,56.70
2022-07-25T05:53:15.455Z,56.94
2022-07-25T05:54:18.484Z,57.00
2022-07-25T05:55:21.538Z,56.91
2022-07-25T05:56:23.669Z,57.08
2022-07-25T05:57:26.749Z,56.95
2022-07-25T05:58:30.048Z,56.81
2022-07-25T05:59:33.398Z,56.54
2022-07-25T06:00:36.648Z,56.57
2022-07-25T06:01:38.781Z,56.69
2022-07-25T06:02:42.036Z,56.52
2022-07-25T06:03:45.581Z,56.54
2022-07-25T06:04:48.566Z,56.30
2022-07-25T06:05:50.658Z,56.15
2022-07-25T06:06:53.699Z,56.26
2022-07-25T06:07:56.025Z,56.12
2022-07-25T06:08:59.133Z,56.31
2022-07-25T06:10:01.855Z,56.26
2022-07-25T06:11:06.010Z,56.25
2022-07-25T06:12:11.451Z,56.32
2022-07-25T06:13:13.497Z,56.26
2022-07-25T06:14:17.817Z,55.94
2022-07-25T06:15:26.539Z,55.87
2022-07-25T06:16:29.189Z,55.71
2022-07-25T06:17:32.824Z,55.61
2022-07-25T06:18:34.965Z,55.60
2022-07-25T06:19:39.400Z,55.54
2022-07-25T06:20:41.498Z,55.78
2022-07-25T06:21:44.524Z,55.56
2022-07-25T06:22:46.648Z,55.38
2022-07-25T06:23:49.711Z,55.29
2022-07-25T06:24:52.759Z,55.17
2022-07-25T06:25:54.863Z,55.32
2022-07-25T06:26:57.945Z,55.00
2022-07-25T06:28:01.108Z,55.18
2022-07-25T06:29:04.238Z,55.08
2022-07-25T06:30:18.671Z,55.28
2022-07-25T06:31:23.143Z,55.26
2022-07-25T06:32:25.254Z,54.91
2022-07-25T06:33:28.297Z,54.94
2022-07-25T06:34:31.602Z,55.25
2022-07-25T06:35:35.309Z,54.80
2022-07-25T06:36:38.422Z,54.59
2022-07-25T06:37:40.498Z,54.50
2022-07-25T06:38:43.886Z,54.13
2022-07-25T06:39:46.290Z,53.89
2022-07-25T06:40:49.475Z,53.92
2022-07-25T06:41:51.582Z,53.45
2022-07-25T06:42:54.658Z,53.38
2022-07-25T06:43:56.817Z,53.27
2022-07-25T06:45:00.198Z,53.20
2022-07-25T06:46:02.806Z,52.82
2022-07-25T06:47:06.213Z,53.10
2022-07-25T06:48:09.371Z,52.48
2022-07-25T06:49:12.474Z,52.96
2022-07-25T06:50:18.506Z,52.68
2022-07-25T06:51:25.249Z,52.51
2022-07-25T06:52:28.771Z,52.52
2022-07-25T06:53:30.826Z,51.94
2022-07-25T06:54:34.176Z,52.07
2022-07-25T06:55:37.500Z,51.85
2022-07-25T06:56:39.661Z,52.10
2022-07-25T06:57:43.192Z,52.07
2022-07-25T06:58:46.327Z,51.66
2022-07-25T06:59:48.427Z,51.42
2022-07-25T07:00:51.675Z,51.47
2022-07-25T07:01:53.822Z,51.11
2022-07-25T07:02:59.703Z,51.49
2022-07-25T07:04:01.797Z,51.53
2022-07-25T07:05:05.227Z,51.96
2022-07-25T07:06:09.362Z,51.61
2022-07-25T07:07:13.916Z,52.31
2022-07-25T07:08:15.979Z,51.85
2022-07-25T07:09:19.049Z,52.08
2022-07-25T07:10:22.090Z,51.94
2022-07-25T07:11:25.568Z,51.96
2022-07-25T07:12:27.563Z,52.00
2022-07-25T07:13:31.046Z,51.33
2022-07-25T07:14:33.083Z,51.47
2022-07-25T07:15:36.367Z,50.75
2022-07-25T07:16:42.409Z,50.84
2022-07-25T07:17:44.922Z,50.39
2022-07-25T07:18:49.449Z,50.66
2022-07-25T07:19:51.810Z,50.07
2022-07-25T07:20:55.361Z,49.87
2022-07-25T07:21:57.421Z,49.79
2022-07-25T07:23:03.202Z,49.83
2022-07-25T07:24:05.723Z,49.30
2022-07-25T07:25:28.501Z,49.21
2022-07-25T07:26:31.725Z,48.93
2022-07-25T07:27:33.790Z,49.33
2022-07-25T07:28:36.829Z,48.76
2022-07-25T07:29:38.975Z,48.95
2022-07-25T07:32:06.604Z,48.20
2022-07-25T07:33:09.713Z,47.93
2022-07-25T07:34:11.809Z,47.62
2022-07-25T07:35:19.409Z,46.90
2022-07-25T07:36:23.314Z,46.76
2022-07-25T07:37:25.439Z,46.32
2022-07-25T07:38:29.827Z,46.66
2022-07-25T07:39:32.045Z,46.23
2022-07-25T07:40:35.063Z,46.32
2022-07-25T07:41:37.157Z,45.62
2022-07-25T07:42:41.985Z,45.87
2022-07-25T07:43:45.042Z,46.09
2022-07-25T07:44:47.033Z,45.52
2022-07-25T07:45:50.059Z,45.88
2022-07-25T07:46:52.062Z,45.80
2022-07-25T07:47:55.879Z,45.12
2022-07-25T07:48:58.062Z,44.73
2022-07-25T07:50:01.244Z,44.81
2022-07-25T07:51:04.711Z,45.34
2022-07-25T07:52:06.882Z,44.89
2022-07-25T07:53:10.064Z,45.38
2022-07-25T07:54:32.153Z,44.95
2022-07-25T07:55:48.511Z,44.98
2022-07-25T07:56:51.584Z,45.38
2022-07-25T07:57:53.686Z,44.86
2022-07-25T07:58:56.691Z,44.75
2022-07-25T07:59:58.684Z,44.74
2022-07-25T08:01:01.718Z,44.70
2022-07-25T08:02:03.869Z,44.68
2022-07-25T08:03:08.765Z,43.85
2022-07-25T08:04:11.851Z,44.02
2022-07-25T08:05:13.967Z,43.49
2022-07-25T08:06:17.010Z,43.86
2022-07-25T08:07:20.045Z,43.74
2022-07-25T08:08:26.647Z,43.76
2022-07-25T08:09:33.584Z,43.38
2022-07-25T08:10:38.507Z,43.83
2022-07-25T08:11:41.551Z,43.39
2022-07-25T08:12:43.658Z,42.74
2022-07-25T08:13:46.666Z,42.96
2022-07-25T08:14:48.730Z,42.28
2022-07-25T08:15:54.350Z,42.06
2022-07-25T08:16:57.437Z,41.68
2022-07-25T08:18:00.446Z,41.98
2022-07-25T08:19:03.480Z,41.71
2022-07-25T08:20:27.953Z,41.65
2022-07-25T08:21:31.462Z,41.69
2022-07-25T08:22:37.255Z,41.07
2022-07-25T08:23:40.351Z,41.30
2022-07-25T08:24:43.754Z,41.11
2022-07-25T08:25:47.212Z,41.43
2022-07-25T08:26:49.236Z,41.19
2022-07-25T08:27:53.318Z,41.33
2022-07-25T08:29:17.446Z,41.14
2022-07-25T08:30:19.427Z,41.21
2022-07-25T08:31:22.625Z,40.79
2022-07-25T08:32:24.704Z,40.83
2022-07-25T08:33:28.386Z,40.90
2022-07-25T08:34:30.397Z,41.40
2022-07-25T08:35:35.089Z,40.83
2022-07-25T08:36:37.146Z,40.85
2022-07-25T08:37:40.178Z,39.81
2022-07-25T08:38:43.264Z,40.10
2022-07-25T08:39:46.725Z,39.95
2022-07-25T08:40:50.793Z,40.06
2022-07-25T08:41:53.016Z,40.36
2022-07-25T08:42:58.453Z,39.93
2022-07-25T08:44:03.982Z,39.50
2022-07-25T08:45:08.271Z,39.02
2022-07-25T08:46:12.391Z,39.47
2022-07-25T08:47:15.841Z,39.46
2022-07-25T08:48:20.867Z,39.14
2022-07-25T08:49:23.449Z,39.27
2022-07-25T08:50:28.753Z,39.07
2022-07-25T08:51:33.302Z,39.16
2022-07-25T08:52:37.661Z,39.34
2022-07-25T08:53:41.200Z,39.41
2022-07-25T08:54:45.392Z,39.70
2022-07-25T08:55:49.788Z,39.84
2022-07-25T08:56:52.787Z,39.63
2022-07-25T08:57:54.921Z,39.57
2022-07-25T08:58:59.002Z,39.47
2022-07-25T09:00:02.558Z,39.24
2022-07-25T09:01:05.822Z,39.32
2022-07-25T09:02:10.776Z,39.45
2022-07-25T09:03:14.538Z,39.55
2022-07-25T09:04:18.384Z,39.55
2022-07-25T09:05:22.246Z,39.25
2022-07-25T09:06:25.368Z,39.18
2022-07-25T09:07:31.644Z,38.88
2022-07-25T09:08:34.658Z,38.93
2022-07-25T09:09:38.861Z,39.43
2022-07-25T09:10:47.271Z,39.50
2022-07-25T09:11:51.642Z,39.22
2022-07-25T09:12:55.412Z,38.67
2022-07-25T09:14:03.072Z,38.66
2022-07-25T09:15:10.002Z,38.85
2022-07-25T09:16:14.326Z,38.96
2022-07-25T09:17:22.376Z,38.59
2022-07-25T09:18:27.338Z,38.70
2022-07-25T09:19:31.600Z,38.89
2022-07-25T09:20:38.827Z,39.02
2022-07-25T09:21:43.249Z,38.57
2022-07-25T09:22:47.321Z,38.73
2022-07-25T09:23:49.334Z,39.14
2022-07-25T09:24:52.389Z,39.03
2022-07-25T09:26:03.225Z,38.71
2022-07-25T09:27:12.709Z,39.10
2022-07-25T09:28:17.669Z,38.67
2022-07-25T09:29:23.287Z,38.74
2022-07-25T09:30:25.358Z,38.03
2022-07-25T09:31:34.998Z,37.44
2022-07-25T09:32:38.127Z,38.27
2022-07-25T09:33:47.569Z,37.66
2022-07-25T09:34:51.718Z,37.80
2022-07-25T09:35:55.075Z,37.37
2022-07-25T09:36:58.298Z,37.42
2022-07-25T09:38:11.653Z,36.98
2022-07-25T09:39:13.769Z,37.22
2022-07-25T09:40:17.001Z,37.33
2022-07-25T09:41:19.865Z,37.34
2022-07-25T09:42:26.659Z,37.32
2022-07-25T09:43:39.644Z,37.05
2022-07-25T09:44:41.789Z,37.26
2022-07-25T09:45:50.471Z,37.02
2022-07-25T09:46:52.927Z,37.16
2022-07-25T09:47:57.848Z,37.31
2022-07-25T09:49:00.992Z,36.56
2022-07-25T09:50:05.098Z,36.85
2022-07-25T09:51:07.470Z,36.75
2022-07-25T09:52:11.002Z,36.80
2022-07-25T09:53:14.191Z,36.88
2022-07-25T09:54:16.337Z,37.01
2022-07-25T09:55:20.488Z,37.13
2022-07-25T09:56:23.513Z,37.30
2022-07-25T09:57:27.778Z,37.69
2022-07-25T09:58:31.575Z,37.57
2022-07-25T09:59:34.566Z,37.87
2022-07-25T10:00:41.139Z,38.03
2022-07-25T10:01:51.391Z,37.94
2022-07-25T10:03:03.038Z,37.33
2022-07-25T10:04:15.545Z,37.14
2022-07-25T10:05:28.894Z,37.47
2022-07-25T10:06:39.971Z,37.13
2022-07-25T10:07:45.720Z,37.45
2022-07-25T10:08:50.417Z,37.36
2022-07-25T10:09:55.810Z,37.27
2022-07-25T10:10:58.914Z,37.56
2022-07-25T10:12:06.033Z,37.63
2022-07-25T10:13:15.191Z,37.20
2022-07-25T10:14:19.153Z,37.62
2022-07-25T10:15:21.269Z,37.51
2022-07-25T10:16:25.647Z,37.51
2022-07-25T10:17:28.825Z,37.77
2022-07-25T10:18:32.611Z,37.93
2022-07-25T10:19:47.388Z,37.62
2022-07-25T10:20:54.839Z,38.05
2022-07-25T10:21:56.829Z,37.87
2022-07-25T10:22:59.924Z,37.46
2022-07-25T10:24:05.426Z,37.42
2022-07-25T10:25:11.798Z,37.47
2022-07-25T10:26:16.438Z,37.29
2022-07-25T10:27:24.447Z,37.48
2022-07-25T10:28:41.573Z,37.84
2022-07-25T10:29:44.630Z,38.09
2022-07-25T10:30:46.902Z,37.77
2022-07-25T10:31:51.811Z,38.13
2022-07-25T10:32:58.374Z,38.15
2022-07-25T10:34:06.863Z,37.61
2022-07-25T10:35:16.606Z,37.33
2022-07-25T10:36:20.733Z,37.57
2022-07-25T10:37:28.079Z,37.27
2022-07-25T10:38:31.276Z,37.41
2022-07-25T10:39:39.693Z,37.70
2022-07-25T10:40:43.432Z,37.81
2022-07-25T10:41:53.131Z,38.08
2022-07-25T10:43:02.971Z,38.45
2022-07-25T10:44:13.992Z,38.56
2022-07-25T10:45:18.093Z,38.29
2022-07-25T10:46:23.672Z,38.06
2022-07-25T10:47:28.209Z,37.99
2022-07-25T10:48:33.245Z,38.03
2022-07-25T10:49:37.626Z,38.13
2022-07-25T10:50:56.256Z,38.56
2022-07-25T10:52:01.436Z,38.23
2022-07-25T10:53:09.291Z,38.08
2022-07-25T10:54:18.053Z,37.95
2022-07-25T10:55:23.823Z,38.04
2022-07-25T10:56:28.702Z,37.96
2022-07-25T10:57:32.161Z,38.08
2022-07-25T10:58:46.925Z,38.73
2022-07-25T10:59:51.372Z,38.92
2022-07-25T11:00:53.939Z,38.65
2022-07-25T11:01:57.507Z,38.34
2022-07-25T11:02:59.667Z,38.09
2022-07-25T11:04:05.929Z,37.81
2022-07-25T11:05:09.920Z,37.93
2022-07-25T11:06:13.699Z,37.95
2022-07-25T11:07:18.641Z,38.19
2022-07-25T11:08:31.044Z,37.98
2022-07-25T11:09:34.311Z,38.04
2022-07-25T11:10:36.459Z,37.72
2022-07-25T11:11:43.226Z,37.88
2022-07-25T11:12:46.303Z,37.66
2022-07-25T11:13:50.187Z,37.76
2022-07-25T11:15:01.224Z,38.24
2022-07-25T11:16:04.026Z,37.78
2022-07-25T11:17:19.784Z,38.05
2022-07-25T11:18:31.497Z,37.90
2022-07-25T11:19:34.582Z,37.82
2022-07-25T11:20:36.621Z,38.70
2022-07-25T11:21:45.583Z,38.66
2022-07-25T11:22:56.016Z,38.75
2022-07-25T11:23:58.042Z,37.73
2022-07-25T11:25:02.152Z,38.42
2022-07-25T11:26:05.905Z,37.64
2022-07-25T11:27:12.405Z,37.74
2022-07-25T11:28:15.998Z,37.72
2022-07-25T11:29:19.783Z,37.98
2022-07-25T11:30:24.309Z,37.94
2022-07-25T11:31:27.876Z,37.81
2022-07-25T11:32:38.725Z,37.66
2022-07-25T11:33:44.616Z,37.36
2022-07-25T11:34:48.983Z,36.94
2022-07-25T11:35:53.489Z,37.19
2022-07-25T11:36:58.480Z,37.20
2022-07-25T11:38:02.415Z,37.00
2022-07-25T11:39:06.030Z,37.32
2022-07-25T11:40:10.232Z,36.98
2022-07-25T11:41:12.500Z,37.43
2022-07-25T11:42:18.000Z,37.63
2022-07-25T11:43:20.914Z,37.29
2022-07-25T11:44:32.081Z,37.64
2022-07-25T11:45:39.400Z,37.81
2022-07-25T11:46:44.032Z,38.23
2022-07-25T11:47:48.014Z,37.84
2022-07-25T11:48:50.129Z,38.13
2022-07-25T11:49:54.816Z,38.12
2022-07-25T11:50:57.557Z,37.88
2022-07-25T11:52:00.926Z,37.68
2022-07-25T11:53:06.094Z,37.19
2022-07-25T11:54:11.063Z,37.08
2022-07-25T11:55:16.557Z,36.91
2022-07-25T11:57:47.218Z,36.78
2022-07-25T11:58:59.011Z,37.11
2022-07-25T12:00:03.547Z,37.33
2022-07-25T12:01:15.252Z,36.96
2022-07-25T12:02:25.954Z,36.27
2022-07-25T12:03:39.218Z,35.83
2022-07-25T12:04:42.460Z,35.60
2022-07-25T12:05:46.150Z,35.50
2022-07-25T12:06:50.856Z,35.09
2022-07-25T12:07:54.813Z,34.77
2022-07-25T12:08:57.889Z,33.29
2022-07-25T12:09:59.957Z,33.68
2022-07-25T12:11:03.010Z,33.73
2022-07-25T12:12:06.549Z,33.55
2022-07-25T12:13:10.200Z,33.36
2022-07-25T12:14:13.712Z,33.25
2022-07-25T12:15:18.713Z,33.08
2022-07-25T12:16:23.121Z,33.01
2022-07-25T12:17:26.202Z,32.78
2022-07-25T12:18:29.571Z,32.99
2022-07-25T12:19:33.577Z,33.56
2022-07-25T12:20:38.872Z,33.09
2022-07-25T12:21:41.956Z,33.20
2022-07-25T12:22:44.131Z,33.34
2022-07-25T12:23:47.157Z,33.15
2022-07-25T12:24:49.333Z,33.15
2022-07-25T12:25:52.453Z,33.21
2022-07-25T12:26:55.864Z,33.02
2022-07-25T12:27:58.896Z,32.98
2022-07-25T12:29:01.994Z,32.75
2022-07-25T12:30:04.956Z,32.48
2022-07-25T12:31:08.500Z,32.77
2022-07-25T12:32:11.988Z,33.15
2022-07-25T12:33:17.261Z,33.38
2022-07-25T12:34:20.270Z,33.25
2022-07-25T12:35:23.856Z,33.18
2022-07-25T12:36:26.957Z,33.13
2022-07-25T12:37:29.057Z,32.81
2022-07-25T12:38:32.456Z,32.98
2022-07-25T12:39:34.472Z,32.89
2022-07-25T12:40:37.462Z,32.71
2022-07-25T12:41:42.678Z,32.96
2022-07-25T12:42:45.659Z,32.94
2022-07-25T12:43:48.653Z,32.92
2022-07-25T12:44:50.700Z,33.18
2022-07-25T12:45:53.899Z,33.12
2022-07-25T12:46:56.099Z,33.54
2022-07-25T12:48:00.573Z,33.67
2022-07-25T12:49:04.174Z,33.63
2022-07-25T12:50:08.253Z,33.73
2022-07-25T12:51:11.289Z,33.96
2022-07-25T12:52:13.510Z,34.06
2022-07-25T12:53:16.671Z,34.49
2022-07-25T12:54:22.215Z,34.62
2022-07-25T12:55:25.842Z,34.48
2022-07-25T12:56:28.954Z,34.64
2022-07-25T12:57:31.080Z,34.83
2022-07-25T12:58:34.116Z,34.59
2022-07-25T12:59:36.130Z,34.68
2022-07-25T13:00:39.215Z,34.61
2022-07-25T13:01:41.305Z,35.18
2022-07-25T13:02:44.572Z,35.19
2022-07-25T13:03:49.012Z,35.30
2022-07-25T13:04:51.008Z,35.23
2022-07-25T13:05:54.025Z,35.43
2022-07-25T13:06:56.889Z,35.54
2022-07-25T13:07:59.938Z,36.04
2022-07-25T13:09:02.033Z,35.98
2022-07-25T13:10:06.430Z,35.79
2022-07-25T13:11:09.469Z,36.32
2022-07-25T13:12:16.355Z,36.00
2022-07-25T13:13:19.824Z,36.17
2022-07-25T13:14:22.119Z,36.08
2022-07-25T13:15:28.189Z,35.76
2022-07-25T13:16:31.308Z,36.58
2022-07-25T13:17:33.796Z,36.30
2022-07-25T13:18:36.829Z,36.45
2022-07-25T13:19:40.404Z,36.53
2022-07-25T13:20:43.426Z,36.42
2022-07-25T13:21:45.495Z,36.51
2022-07-25T13:22:48.732Z,36.53
2022-07-25T13:23:51.740Z,36.60
2022-07-25T13:24:54.270Z,36.14
2022-07-25T13:25:57.346Z,36.64
2022-07-25T13:27:00.360Z,37.03
2022-07-25T13:28:04.164Z,37.39
2022-07-25T13:29:13.277Z,37.47
2022-07-25T13:30:16.602Z,37.57
2022-07-25T13:31:20.312Z,37.51
2022-07-25T13:32:26.482Z,37.70
2022-07-25T13:33:29.646Z,37.82
2022-07-25T13:34:31.676Z,37.25
2022-07-25T13:35:39.147Z,37.64
2022-07-25T13:36:42.786Z,37.13
2022-07-25T13:37:45.968Z,37.07
2022-07-25T13:38:47.985Z,37.35
2022-07-25T13:39:51.322Z,37.23
2022-07-25T13:40:58.735Z,36.87
2022-07-25T13:42:01.068Z,36.92
2022-07-25T13:43:04.137Z,36.76
2022-07-25T13:44:07.305Z,36.47
2022-07-25T13:45:11.325Z,36.81
2022-07-25T13:46:13.538Z,36.57